sensor_id;sensor_type;location;lat;lon;timestamp;P1;durP1;ratioP1;P2;durP2;ratioP2
7493;SDS011;3788;49.902;8.590;2024-01-30T00:01:06;10.17;;;8.33;;
7493;SDS011;3788;49.902;8.590;2024-01-30T00:03:32;13.70;;;8.50;;
7493;SDS011;3788;49.902;8.590;2024-01-30T00:05:59;11.13;;;8.43;;
7493;SDS011;3788;49.902;8.590;2024-01-30T00:08:27;9.50;;;8.13;;
7493;SDS011;3788;49.902;8.590;2024-01-30T00:10:53;10.43;;;7.87;;
7493;SDS011;3788;49.902;8.590;2024-01-30T00:13:20;11.17;;;7.60;;
7493;SDS011;3788;49.902;8.590;2024-01-30T00:15:47;11.23;;;7.63;;
7493;SDS011;3788;49.902;8.590;2024-01-30T00:18:14;10.73;;;8.67;;
7493;SDS011;3788;49.902;8.590;2024-01-30T00:20:41;12.07;;;8.73;;
7493;SDS011;3788;49.902;8.590;2024-01-30T00:23:08;10.93;;;8.40;;
7493;SDS011;3788;49.902;8.590;2024-01-30T00:25:36;12.83;;;8.77;;
7493;SDS011;3788;49.902;8.590;2024-01-30T00:28:02;12.47;;;8.73;;
7493;SDS011;3788;49.902;8.590;2024-01-30T00:30:29;11.70;;;8.13;;
7493;SDS011;3788;49.902;8.590;2024-01-30T00:32:56;12.43;;;8.93;;
7493;SDS011;3788;49.902;8.590;2024-01-30T00:35:22;10.93;;;7.77;;
7493;SDS011;3788;49.902;8.590;2024-01-30T00:37:49;9.93;;;7.80;;
7493;SDS011;3788;49.902;8.590;2024-01-30T00:40:16;10.43;;;7.37;;
7493;SDS011;3788;49.902;8.590;2024-01-30T00:42:44;10.93;;;7.60;;
7493;SDS011;3788;49.902;8.590;2024-01-30T00:45:14;9.33;;;7.30;;
7493;SDS011;3788;49.902;8.590;2024-01-30T00:47:41;8.30;;;6.83;;
7493;SDS011;3788;49.902;8.590;2024-01-30T00:50:08;8.00;;;6.70;;
7493;SDS011;3788;49.902;8.590;2024-01-30T00:52:35;9.17;;;6.87;;
7493;SDS011;3788;49.902;8.590;2024-01-30T00:55:04;7.90;;;6.67;;
7493;SDS011;3788;49.902;8.590;2024-01-30T00:57:31;8.50;;;7.17;;
7493;SDS011;3788;49.902;8.590;2024-01-30T00:59:59;8.27;;;6.90;;
7493;SDS011;3788;49.902;8.590;2024-01-30T01:02:26;8.40;;;6.30;;
7493;SDS011;3788;49.902;8.590;2024-01-30T01:04:52;7.37;;;6.33;;
7493;SDS011;3788;49.902;8.590;2024-01-30T01:07:19;8.97;;;6.63;;
7493;SDS011;3788;49.902;8.590;2024-01-30T01:09:46;9.63;;;6.70;;
7493;SDS011;3788;49.902;8.590;2024-01-30T01:12:12;8.00;;;6.57;;
7493;SDS011;3788;49.902;8.590;2024-01-30T01:14:39;8.43;;;5.73;;
7493;SDS011;3788;49.902;8.590;2024-01-30T01:17:07;7.93;;;6.13;;
7493;SDS011;3788;49.902;8.590;2024-01-30T01:19:34;8.00;;;5.77;;
7493;SDS011;3788;49.902;8.590;2024-01-30T01:22:00;7.53;;;6.17;;
7493;SDS011;3788;49.902;8.590;2024-01-30T01:24:28;7.73;;;6.27;;
7493;SDS011;3788;49.902;8.590;2024-01-30T01:26:55;8.87;;;6.10;;
7493;SDS011;3788;49.902;8.590;2024-01-30T01:29:22;7.70;;;6.53;;
7493;SDS011;3788;49.902;8.590;2024-01-30T01:31:53;8.03;;;6.63;;
7493;SDS011;3788;49.902;8.590;2024-01-30T01:34:22;9.27;;;7.33;;
7493;SDS011;3788;49.902;8.590;2024-01-30T01:36:49;7.97;;;7.07;;
7493;SDS011;3788;49.902;8.590;2024-01-30T01:39:16;8.90;;;7.23;;
7493;SDS011;3788;49.902;8.590;2024-01-30T01:41:42;8.57;;;6.60;;
7493;SDS011;3788;49.902;8.590;2024-01-30T01:44:09;7.63;;;6.57;;
7493;SDS011;3788;49.902;8.590;2024-01-30T01:46:36;7.17;;;6.40;;
7493;SDS011;3788;49.902;8.590;2024-01-30T01:49:04;8.83;;;6.60;;
7493;SDS011;3788;49.902;8.590;2024-01-30T01:51:33;7.00;;;6.00;;
7493;SDS011;3788;49.902;8.590;2024-01-30T01:54:02;7.20;;;6.20;;
7493;SDS011;3788;49.902;8.590;2024-01-30T01:56:30;9.37;;;6.43;;
7493;SDS011;3788;49.902;8.590;2024-01-30T01:58:59;7.43;;;6.00;;
7493;SDS011;3788;49.902;8.590;2024-01-30T02:01:30;6.97;;;6.17;;
7493;SDS011;3788;49.902;8.590;2024-01-30T02:03:58;8.43;;;5.83;;
7493;SDS011;3788;49.902;8.590;2024-01-30T02:06:25;6.57;;;5.63;;
7493;SDS011;3788;49.902;8.590;2024-01-30T02:08:54;7.47;;;6.07;;
7493;SDS011;3788;49.902;8.590;2024-01-30T02:11:21;8.20;;;6.00;;
7493;SDS011;3788;49.902;8.590;2024-01-30T02:13:48;7.33;;;6.30;;
7493;SDS011;3788;49.902;8.590;2024-01-30T02:16:15;7.70;;;5.63;;
7493;SDS011;3788;49.902;8.590;2024-01-30T02:18:42;8.17;;;6.10;;
7493;SDS011;3788;49.902;8.590;2024-01-30T02:21:13;7.57;;;5.97;;
7493;SDS011;3788;49.902;8.590;2024-01-30T02:23:40;6.80;;;6.00;;
7493;SDS011;3788;49.902;8.590;2024-01-30T02:26:09;8.63;;;5.90;;
7493;SDS011;3788;49.902;8.590;2024-01-30T02:28:36;7.73;;;6.03;;
7493;SDS011;3788;49.902;8.590;2024-01-30T02:31:03;8.43;;;6.63;;
7493;SDS011;3788;49.902;8.590;2024-01-30T02:33:29;9.63;;;6.83;;
7493;SDS011;3788;49.902;8.590;2024-01-30T02:35:56;9.80;;;6.33;;
7493;SDS011;3788;49.902;8.590;2024-01-30T02:38:25;9.20;;;7.07;;
7493;SDS011;3788;49.902;8.590;2024-01-30T02:40:53;8.27;;;6.87;;
7493;SDS011;3788;49.902;8.590;2024-01-30T02:43:20;7.93;;;6.60;;
7493;SDS011;3788;49.902;8.590;2024-01-30T02:45:47;8.30;;;6.43;;
7493;SDS011;3788;49.902;8.590;2024-01-30T02:48:13;6.50;;;5.90;;
7493;SDS011;3788;49.902;8.590;2024-01-30T02:50:40;8.17;;;7.00;;
7493;SDS011;3788;49.902;8.590;2024-01-30T02:53:07;8.47;;;6.90;;
7493;SDS011;3788;49.902;8.590;2024-01-30T02:55:35;8.00;;;6.67;;
7493;SDS011;3788;49.902;8.590;2024-01-30T02:58:01;8.00;;;6.73;;
7493;SDS011;3788;49.902;8.590;2024-01-30T03:00:28;9.00;;;6.83;;
7493;SDS011;3788;49.902;8.590;2024-01-30T03:02:55;7.80;;;6.37;;
7493;SDS011;3788;49.902;8.590;2024-01-30T03:05:21;9.40;;;6.80;;
7493;SDS011;3788;49.902;8.590;2024-01-30T03:07:48;8.23;;;6.40;;
7493;SDS011;3788;49.902;8.590;2024-01-30T03:10:15;8.13;;;6.27;;
7493;SDS011;3788;49.902;8.590;2024-01-30T03:12:43;7.17;;;6.47;;
7493;SDS011;3788;49.902;8.590;2024-01-30T03:15:09;9.73;;;7.27;;
7493;SDS011;3788;49.902;8.590;2024-01-30T03:17:36;7.23;;;6.03;;
7493;SDS011;3788;49.902;8.590;2024-01-30T03:20:03;7.67;;;6.60;;
7493;SDS011;3788;49.902;8.590;2024-01-30T03:22:31;9.87;;;7.83;;
7493;SDS011;3788;49.902;8.590;2024-01-30T03:27:25;7.43;;;6.63;;
7493;SDS011;3788;49.902;8.590;2024-01-30T03:29:54;8.13;;;6.97;;
7493;SDS011;3788;49.902;8.590;2024-01-30T03:32:20;8.07;;;7.27;;
7493;SDS011;3788;49.902;8.590;2024-01-30T03:34:47;9.47;;;6.90;;
7493;SDS011;3788;49.902;8.590;2024-01-30T03:37:14;8.33;;;6.73;;
7493;SDS011;3788;49.902;8.590;2024-01-30T03:39:40;9.80;;;7.17;;
7493;SDS011;3788;49.902;8.590;2024-01-30T03:42:07;7.47;;;6.47;;
7493;SDS011;3788;49.902;8.590;2024-01-30T03:44:34;10.17;;;7.00;;
7493;SDS011;3788;49.902;8.590;2024-01-30T03:47:02;8.00;;;6.63;;
7493;SDS011;3788;49.902;8.590;2024-01-30T03:49:29;8.10;;;7.30;;
7493;SDS011;3788;49.902;8.590;2024-01-30T03:51:55;9.17;;;6.47;;
7493;SDS011;3788;49.902;8.590;2024-01-30T03:54:22;7.87;;;7.03;;
7493;SDS011;3788;49.902;8.590;2024-01-30T03:56:49;7.80;;;6.20;;
7493;SDS011;3788;49.902;8.590;2024-01-30T03:59:15;8.50;;;6.87;;
7493;SDS011;3788;49.902;8.590;2024-01-30T04:01:42;8.50;;;7.10;;
7493;SDS011;3788;49.902;8.590;2024-01-30T04:04:13;8.57;;;6.87;;
7493;SDS011;3788;49.902;8.590;2024-01-30T04:06:40;9.07;;;7.07;;
7493;SDS011;3788;49.902;8.590;2024-01-30T04:09:09;7.67;;;6.47;;
7493;SDS011;3788;49.902;8.590;2024-01-30T04:11:38;9.00;;;6.80;;
7493;SDS011;3788;49.902;8.590;2024-01-30T04:14:04;8.07;;;7.27;;
7493;SDS011;3788;49.902;8.590;2024-01-30T04:16:31;9.47;;;7.10;;
7493;SDS011;3788;49.902;8.590;2024-01-30T04:18:58;8.10;;;6.97;;
7493;SDS011;3788;49.902;8.590;2024-01-30T04:21:25;8.70;;;6.60;;
7493;SDS011;3788;49.902;8.590;2024-01-30T04:23:52;7.37;;;6.00;;
7493;SDS011;3788;49.902;8.590;2024-01-30T04:26:19;8.57;;;6.50;;
7493;SDS011;3788;49.902;8.590;2024-01-30T04:28:46;8.67;;;6.57;;
7493;SDS011;3788;49.902;8.590;2024-01-30T04:31:14;9.40;;;7.30;;
7493;SDS011;3788;49.902;8.590;2024-01-30T04:33:41;8.47;;;6.67;;
7493;SDS011;3788;49.902;8.590;2024-01-30T04:36:08;8.87;;;7.03;;
7493;SDS011;3788;49.902;8.590;2024-01-30T04:38:37;8.63;;;6.83;;
7493;SDS011;3788;49.902;8.590;2024-01-30T04:41:04;8.23;;;6.70;;
7493;SDS011;3788;49.902;8.590;2024-01-30T04:43:31;9.73;;;7.57;;
7493;SDS011;3788;49.902;8.590;2024-01-30T04:45:58;10.43;;;7.73;;
7493;SDS011;3788;49.902;8.590;2024-01-30T04:48:24;8.57;;;7.30;;
7493;SDS011;3788;49.902;8.590;2024-01-30T04:50:51;9.23;;;7.00;;
7493;SDS011;3788;49.902;8.590;2024-01-30T04:53:18;9.57;;;7.10;;
7493;SDS011;3788;49.902;8.590;2024-01-30T04:55:46;9.17;;;6.60;;
7493;SDS011;3788;49.902;8.590;2024-01-30T04:58:13;8.63;;;6.03;;
7493;SDS011;3788;49.902;8.590;2024-01-30T05:00:39;7.87;;;6.60;;
7493;SDS011;3788;49.902;8.590;2024-01-30T05:03:06;9.07;;;6.63;;
7493;SDS011;3788;49.902;8.590;2024-01-30T05:05:33;8.07;;;6.57;;
7493;SDS011;3788;49.902;8.590;2024-01-30T05:07:59;8.07;;;5.77;;
7493;SDS011;3788;49.902;8.590;2024-01-30T05:10:26;7.10;;;6.03;;
7493;SDS011;3788;49.902;8.590;2024-01-30T05:12:55;6.40;;;5.50;;
7493;SDS011;3788;49.902;8.590;2024-01-30T05:15:21;8.57;;;6.60;;
7493;SDS011;3788;49.902;8.590;2024-01-30T05:17:48;9.57;;;6.43;;
7493;SDS011;3788;49.902;8.590;2024-01-30T05:20:14;6.30;;;5.33;;
7493;SDS011;3788;49.902;8.590;2024-01-30T05:22:42;6.57;;;5.80;;
7493;SDS011;3788;49.902;8.590;2024-01-30T05:25:10;7.23;;;5.90;;
7493;SDS011;3788;49.902;8.590;2024-01-30T05:27:37;9.60;;;6.17;;
7493;SDS011;3788;49.902;8.590;2024-01-30T05:30:05;9.10;;;6.43;;
7493;SDS011;3788;49.902;8.590;2024-01-30T05:32:32;6.43;;;5.80;;
7493;SDS011;3788;49.902;8.590;2024-01-30T05:34:59;10.77;;;6.70;;
7493;SDS011;3788;49.902;8.590;2024-01-30T05:37:26;9.13;;;6.30;;
7493;SDS011;3788;49.902;8.590;2024-01-30T05:39:52;7.93;;;5.90;;
7493;SDS011;3788;49.902;8.590;2024-01-30T05:42:19;8.00;;;5.73;;
7493;SDS011;3788;49.902;8.590;2024-01-30T05:44:46;7.30;;;5.90;;
7493;SDS011;3788;49.902;8.590;2024-01-30T05:47:14;8.70;;;6.97;;
7493;SDS011;3788;49.902;8.590;2024-01-30T05:49:40;9.50;;;6.90;;
7493;SDS011;3788;49.902;8.590;2024-01-30T05:52:07;8.53;;;6.30;;
7493;SDS011;3788;49.902;8.590;2024-01-30T05:54:34;6.67;;;5.70;;
7493;SDS011;3788;49.902;8.590;2024-01-30T05:57:01;6.33;;;5.60;;
7493;SDS011;3788;49.902;8.590;2024-01-30T05:59:28;8.73;;;5.87;;
7493;SDS011;3788;49.902;8.590;2024-01-30T06:01:55;6.87;;;5.77;;
7493;SDS011;3788;49.902;8.590;2024-01-30T06:04:22;7.93;;;6.47;;
7493;SDS011;3788;49.902;8.590;2024-01-30T06:06:49;9.23;;;6.00;;
7493;SDS011;3788;49.902;8.590;2024-01-30T06:09:16;6.20;;;5.60;;
7493;SDS011;3788;49.902;8.590;2024-01-30T06:11:43;10.70;;;7.33;;
7493;SDS011;3788;49.902;8.590;2024-01-30T06:14:09;6.67;;;5.30;;
7493;SDS011;3788;49.902;8.590;2024-01-30T06:16:36;7.83;;;6.63;;
7493;SDS011;3788;49.902;8.590;2024-01-30T06:19:02;6.60;;;5.83;;
7493;SDS011;3788;49.902;8.590;2024-01-30T06:21:30;8.53;;;6.77;;
7493;SDS011;3788;49.902;8.590;2024-01-30T06:24:01;8.67;;;6.17;;
7493;SDS011;3788;49.902;8.590;2024-01-30T06:26:28;7.73;;;6.30;;
7493;SDS011;3788;49.902;8.590;2024-01-30T06:28:54;6.90;;;6.13;;
7493;SDS011;3788;49.902;8.590;2024-01-30T06:31:21;7.67;;;6.57;;
7493;SDS011;3788;49.902;8.590;2024-01-30T06:33:48;7.50;;;6.73;;
7493;SDS011;3788;49.902;8.590;2024-01-30T06:36:15;8.90;;;6.57;;
7493;SDS011;3788;49.902;8.590;2024-01-30T06:38:43;8.30;;;6.60;;
7493;SDS011;3788;49.902;8.590;2024-01-30T06:41:13;8.00;;;6.33;;
7493;SDS011;3788;49.902;8.590;2024-01-30T06:43:40;7.47;;;6.37;;
7493;SDS011;3788;49.902;8.590;2024-01-30T06:46:07;9.53;;;7.10;;
7493;SDS011;3788;49.902;8.590;2024-01-30T06:48:33;8.53;;;6.83;;
7493;SDS011;3788;49.902;8.590;2024-01-30T06:51:00;12.50;;;8.70;;
7493;SDS011;3788;49.902;8.590;2024-01-30T06:53:29;10.10;;;7.80;;
7493;SDS011;3788;49.902;8.590;2024-01-30T06:55:57;11.53;;;8.17;;
7493;SDS011;3788;49.902;8.590;2024-01-30T06:58:24;12.50;;;9.30;;
7493;SDS011;3788;49.902;8.590;2024-01-30T07:00:51;13.07;;;9.37;;
7493;SDS011;3788;49.902;8.590;2024-01-30T07:03:17;11.57;;;8.80;;
7493;SDS011;3788;49.902;8.590;2024-01-30T07:05:45;11.87;;;8.77;;
7493;SDS011;3788;49.902;8.590;2024-01-30T07:08:12;10.67;;;8.57;;
7493;SDS011;3788;49.902;8.590;2024-01-30T07:10:39;13.07;;;9.13;;
7493;SDS011;3788;49.902;8.590;2024-01-30T07:13:07;12.37;;;8.20;;
7493;SDS011;3788;49.902;8.590;2024-01-30T07:15:35;13.53;;;9.40;;
7493;SDS011;3788;49.902;8.590;2024-01-30T07:18:02;11.83;;;8.63;;
7493;SDS011;3788;49.902;8.590;2024-01-30T07:20:30;10.60;;;8.87;;
7493;SDS011;3788;49.902;8.590;2024-01-30T07:22:57;11.63;;;8.63;;
7493;SDS011;3788;49.902;8.590;2024-01-30T07:25:24;10.17;;;7.97;;
7493;SDS011;3788;49.902;8.590;2024-01-30T07:27:51;14.20;;;9.40;;
7493;SDS011;3788;49.902;8.590;2024-01-30T07:30:20;12.70;;;9.53;;
7493;SDS011;3788;49.902;8.590;2024-01-30T07:32:49;10.57;;;8.67;;
7493;SDS011;3788;49.902;8.590;2024-01-30T07:35:16;13.73;;;8.87;;
7493;SDS011;3788;49.902;8.590;2024-01-30T07:37:43;12.10;;;8.87;;
7493;SDS011;3788;49.902;8.590;2024-01-30T07:40:10;12.47;;;8.77;;
7493;SDS011;3788;49.902;8.590;2024-01-30T07:42:38;10.73;;;8.47;;
7493;SDS011;3788;49.902;8.590;2024-01-30T07:45:05;10.83;;;8.13;;
7493;SDS011;3788;49.902;8.590;2024-01-30T07:47:35;12.37;;;9.07;;
7493;SDS011;3788;49.902;8.590;2024-01-30T07:50:02;12.97;;;9.00;;
7493;SDS011;3788;49.902;8.590;2024-01-30T07:52:29;12.23;;;8.90;;
7493;SDS011;3788;49.902;8.590;2024-01-30T07:54:56;11.17;;;8.93;;
7493;SDS011;3788;49.902;8.590;2024-01-30T07:57:23;11.90;;;8.30;;
7493;SDS011;3788;49.902;8.590;2024-01-30T07:59:49;12.20;;;8.17;;
7493;SDS011;3788;49.902;8.590;2024-01-30T08:02:16;12.20;;;8.43;;
7493;SDS011;3788;49.902;8.590;2024-01-30T08:04:44;11.30;;;8.03;;
7493;SDS011;3788;49.902;8.590;2024-01-30T08:07:15;9.73;;;7.53;;
7493;SDS011;3788;49.902;8.590;2024-01-30T08:09:42;11.53;;;8.27;;
7493;SDS011;3788;49.902;8.590;2024-01-30T08:12:09;9.37;;;7.67;;
7493;SDS011;3788;49.902;8.590;2024-01-30T08:14:36;10.23;;;7.50;;
7493;SDS011;3788;49.902;8.590;2024-01-30T08:17:03;10.97;;;8.07;;
7493;SDS011;3788;49.902;8.590;2024-01-30T08:19:31;9.73;;;7.43;;
7493;SDS011;3788;49.902;8.590;2024-01-30T08:21:59;9.43;;;7.63;;
7493;SDS011;3788;49.902;8.590;2024-01-30T08:24:27;10.20;;;8.17;;
7493;SDS011;3788;49.902;8.590;2024-01-30T08:26:53;10.40;;;7.40;;
7493;SDS011;3788;49.902;8.590;2024-01-30T08:29:20;11.10;;;7.97;;
7493;SDS011;3788;49.902;8.590;2024-01-30T08:31:47;10.27;;;7.93;;
7493;SDS011;3788;49.902;8.590;2024-01-30T08:34:14;10.67;;;8.63;;
7493;SDS011;3788;49.902;8.590;2024-01-30T08:36:41;10.27;;;8.97;;
7493;SDS011;3788;49.902;8.590;2024-01-30T08:39:11;10.33;;;7.97;;
7493;SDS011;3788;49.902;8.590;2024-01-30T08:41:38;9.83;;;7.23;;
7493;SDS011;3788;49.902;8.590;2024-01-30T08:44:05;8.63;;;7.73;;
7493;SDS011;3788;49.902;8.590;2024-01-30T08:46:31;9.50;;;8.33;;
7493;SDS011;3788;49.902;8.590;2024-01-30T08:48:59;11.80;;;8.03;;
7493;SDS011;3788;49.902;8.590;2024-01-30T08:51:25;11.33;;;8.40;;
7493;SDS011;3788;49.902;8.590;2024-01-30T08:53:52;9.50;;;7.70;;
7493;SDS011;3788;49.902;8.590;2024-01-30T08:56:20;10.40;;;8.53;;
7493;SDS011;3788;49.902;8.590;2024-01-30T08:58:47;10.10;;;8.03;;
7493;SDS011;3788;49.902;8.590;2024-01-30T09:01:13;10.90;;;7.57;;
7493;SDS011;3788;49.902;8.590;2024-01-30T09:03:41;9.33;;;8.03;;
7493;SDS011;3788;49.902;8.590;2024-01-30T09:06:08;11.23;;;8.13;;
7493;SDS011;3788;49.902;8.590;2024-01-30T09:08:35;8.77;;;7.87;;
7493;SDS011;3788;49.902;8.590;2024-01-30T09:11:03;9.07;;;7.63;;
7493;SDS011;3788;49.902;8.590;2024-01-30T09:13:36;9.33;;;7.93;;
7493;SDS011;3788;49.902;8.590;2024-01-30T09:16:03;9.23;;;8.13;;
7493;SDS011;3788;49.902;8.590;2024-01-30T09:18:30;8.30;;;7.27;;
7493;SDS011;3788;49.902;8.590;2024-01-30T09:20:57;9.33;;;7.57;;
7493;SDS011;3788;49.902;8.590;2024-01-30T09:23:24;10.93;;;8.20;;
7493;SDS011;3788;49.902;8.590;2024-01-30T09:25:51;9.93;;;8.47;;
7493;SDS011;3788;49.902;8.590;2024-01-30T09:28:18;11.57;;;8.77;;
7493;SDS011;3788;49.902;8.590;2024-01-30T09:30:46;11.70;;;9.50;;
7493;SDS011;3788;49.902;8.590;2024-01-30T09:33:12;10.87;;;9.77;;
7493;SDS011;3788;49.902;8.590;2024-01-30T09:35:39;11.87;;;8.87;;
7493;SDS011;3788;49.902;8.590;2024-01-30T09:38:06;9.90;;;8.63;;
7493;SDS011;3788;49.902;8.590;2024-01-30T09:40:32;9.23;;;8.13;;
7493;SDS011;3788;49.902;8.590;2024-01-30T09:42:59;10.47;;;8.50;;
7493;SDS011;3788;49.902;8.590;2024-01-30T09:45:26;10.50;;;8.83;;
7493;SDS011;3788;49.902;8.590;2024-01-30T09:47:54;8.73;;;7.83;;
7493;SDS011;3788;49.902;8.590;2024-01-30T09:50:21;11.37;;;10.03;;
7493;SDS011;3788;49.902;8.590;2024-01-30T09:52:48;14.80;;;10.03;;
7493;SDS011;3788;49.902;8.590;2024-01-30T09:55:17;13.90;;;10.27;;
7493;SDS011;3788;49.902;8.590;2024-01-30T09:57:45;9.57;;;8.57;;
7493;SDS011;3788;49.902;8.590;2024-01-30T10:00:12;10.67;;;9.57;;
7493;SDS011;3788;49.902;8.590;2024-01-30T10:02:39;13.83;;;10.00;;
7493;SDS011;3788;49.902;8.590;2024-01-30T10:05:08;12.47;;;9.67;;
7493;SDS011;3788;49.902;8.590;2024-01-30T10:07:36;11.43;;;9.37;;
7493;SDS011;3788;49.902;8.590;2024-01-30T10:10:04;11.50;;;9.47;;
7493;SDS011;3788;49.902;8.590;2024-01-30T10:12:31;11.67;;;9.50;;
7493;SDS011;3788;49.902;8.590;2024-01-30T10:14:58;9.87;;;8.57;;
7493;SDS011;3788;49.902;8.590;2024-01-30T10:17:25;10.87;;;9.57;;
7493;SDS011;3788;49.902;8.590;2024-01-30T10:19:52;12.47;;;10.50;;
7493;SDS011;3788;49.902;8.590;2024-01-30T10:22:20;13.47;;;10.63;;
7493;SDS011;3788;49.902;8.590;2024-01-30T10:24:47;14.23;;;10.43;;
7493;SDS011;3788;49.902;8.590;2024-01-30T10:27:14;14.57;;;11.37;;
7493;SDS011;3788;49.902;8.590;2024-01-30T10:29:41;14.13;;;11.57;;
7493;SDS011;3788;49.902;8.590;2024-01-30T10:32:08;15.87;;;11.43;;
7493;SDS011;3788;49.902;8.590;2024-01-30T10:34:34;11.77;;;10.40;;
7493;SDS011;3788;49.902;8.590;2024-01-30T10:37:05;12.40;;;10.27;;
7493;SDS011;3788;49.902;8.590;2024-01-30T10:39:39;14.00;;;10.77;;
7493;SDS011;3788;49.902;8.590;2024-01-30T10:42:06;11.83;;;9.77;;
7493;SDS011;3788;49.902;8.590;2024-01-30T10:44:37;12.87;;;10.70;;
7493;SDS011;3788;49.902;8.590;2024-01-30T10:47:11;13.93;;;10.93;;
7493;SDS011;3788;49.902;8.590;2024-01-30T10:49:39;12.67;;;9.77;;
7493;SDS011;3788;49.902;8.590;2024-01-30T10:52:08;11.20;;;9.63;;
7493;SDS011;3788;49.902;8.590;2024-01-30T10:54:36;11.73;;;9.50;;
7493;SDS011;3788;49.902;8.590;2024-01-30T10:57:06;11.67;;;9.63;;
7493;SDS011;3788;49.902;8.590;2024-01-30T10:59:34;11.90;;;9.63;;
7493;SDS011;3788;49.902;8.590;2024-01-30T11:02:01;10.23;;;9.13;;
7493;SDS011;3788;49.902;8.590;2024-01-30T11:04:35;12.00;;;9.47;;
7493;SDS011;3788;49.902;8.590;2024-01-30T11:07:02;10.00;;;8.63;;
7493;SDS011;3788;49.902;8.590;2024-01-30T11:09:41;11.50;;;9.67;;
7493;SDS011;3788;49.902;8.590;2024-01-30T11:12:14;11.33;;;9.33;;
7493;SDS011;3788;49.902;8.590;2024-01-30T11:14:41;11.40;;;10.13;;
7493;SDS011;3788;49.902;8.590;2024-01-30T11:17:09;11.77;;;9.83;;
7493;SDS011;3788;49.902;8.590;2024-01-30T11:19:37;15.27;;;11.63;;
7493;SDS011;3788;49.902;8.590;2024-01-30T11:22:06;14.07;;;11.23;;
7493;SDS011;3788;49.902;8.590;2024-01-30T11:24:36;15.87;;;10.70;;
7493;SDS011;3788;49.902;8.590;2024-01-30T11:27:08;17.73;;;12.10;;
7493;SDS011;3788;49.902;8.590;2024-01-30T11:29:35;14.23;;;11.37;;
7493;SDS011;3788;49.902;8.590;2024-01-30T11:32:02;14.77;;;11.40;;
7493;SDS011;3788;49.902;8.590;2024-01-30T11:34:30;14.90;;;12.17;;
7493;SDS011;3788;49.902;8.590;2024-01-30T11:36:59;13.00;;;10.30;;
7493;SDS011;3788;49.902;8.590;2024-01-30T11:39:29;11.60;;;10.40;;
7493;SDS011;3788;49.902;8.590;2024-01-30T11:41:56;13.23;;;10.00;;
7493;SDS011;3788;49.902;8.590;2024-01-30T11:44:25;11.97;;;9.30;;
7493;SDS011;3788;49.902;8.590;2024-01-30T11:46:52;13.90;;;10.00;;
7493;SDS011;3788;49.902;8.590;2024-01-30T11:49:19;13.43;;;11.07;;
7493;SDS011;3788;49.902;8.590;2024-01-30T11:51:46;11.57;;;9.20;;
7493;SDS011;3788;49.902;8.590;2024-01-30T11:54:14;10.67;;;9.33;;
7493;SDS011;3788;49.902;8.590;2024-01-30T11:56:41;11.43;;;9.30;;
7493;SDS011;3788;49.902;8.590;2024-01-30T11:59:09;9.90;;;8.90;;
7493;SDS011;3788;49.902;8.590;2024-01-30T12:01:37;9.83;;;8.73;;
7493;SDS011;3788;49.902;8.590;2024-01-30T12:04:04;12.63;;;10.23;;
7493;SDS011;3788;49.902;8.590;2024-01-30T12:06:33;12.33;;;10.23;;
7493;SDS011;3788;49.902;8.590;2024-01-30T12:09:01;12.60;;;9.83;;
7493;SDS011;3788;49.902;8.590;2024-01-30T12:11:30;14.17;;;10.83;;
7493;SDS011;3788;49.902;8.590;2024-01-30T12:13:56;12.83;;;10.37;;
7493;SDS011;3788;49.902;8.590;2024-01-30T12:16:23;13.30;;;11.10;;
7493;SDS011;3788;49.902;8.590;2024-01-30T12:18:58;13.43;;;10.63;;
7493;SDS011;3788;49.902;8.590;2024-01-30T12:21:25;10.93;;;9.17;;
7493;SDS011;3788;49.902;8.590;2024-01-30T12:23:52;11.37;;;9.90;;
7493;SDS011;3788;49.902;8.590;2024-01-30T12:26:19;12.27;;;10.30;;
7493;SDS011;3788;49.902;8.590;2024-01-30T12:28:49;11.60;;;9.70;;
7493;SDS011;3788;49.902;8.590;2024-01-30T12:31:16;11.80;;;10.50;;
7493;SDS011;3788;49.902;8.590;2024-01-30T12:33:43;10.97;;;9.53;;
7493;SDS011;3788;49.902;8.590;2024-01-30T12:36:12;11.73;;;9.60;;
7493;SDS011;3788;49.902;8.590;2024-01-30T12:38:39;11.57;;;10.00;;
7493;SDS011;3788;49.902;8.590;2024-01-30T12:41:06;10.33;;;9.13;;
7493;SDS011;3788;49.902;8.590;2024-01-30T12:43:35;13.47;;;9.70;;
7493;SDS011;3788;49.902;8.590;2024-01-30T12:46:02;11.20;;;9.33;;
7493;SDS011;3788;49.902;8.590;2024-01-30T12:48:29;13.13;;;9.93;;
7493;SDS011;3788;49.902;8.590;2024-01-30T12:50:56;13.07;;;9.47;;
7493;SDS011;3788;49.902;8.590;2024-01-30T12:53:24;10.20;;;8.77;;
7493;SDS011;3788;49.902;8.590;2024-01-30T12:55:50;10.50;;;8.13;;
7493;SDS011;3788;49.902;8.590;2024-01-30T12:58:19;11.10;;;8.90;;
7493;SDS011;3788;49.902;8.590;2024-01-30T13:00:45;9.23;;;7.80;;
7493;SDS011;3788;49.902;8.590;2024-01-30T13:03:13;10.07;;;8.03;;
7493;SDS011;3788;49.902;8.590;2024-01-30T13:05:40;12.90;;;9.73;;
7493;SDS011;3788;49.902;8.590;2024-01-30T13:08:07;9.63;;;7.97;;
7493;SDS011;3788;49.902;8.590;2024-01-30T13:10:35;10.13;;;7.60;;
7493;SDS011;3788;49.902;8.590;2024-01-30T13:13:01;10.17;;;8.03;;
7493;SDS011;3788;49.902;8.590;2024-01-30T13:15:28;9.57;;;8.57;;
7493;SDS011;3788;49.902;8.590;2024-01-30T13:17:55;11.40;;;8.80;;
7493;SDS011;3788;49.902;8.590;2024-01-30T13:20:22;12.23;;;8.80;;
7493;SDS011;3788;49.902;8.590;2024-01-30T13:22:48;9.20;;;7.80;;
7493;SDS011;3788;49.902;8.590;2024-01-30T13:25:15;11.27;;;8.43;;
7493;SDS011;3788;49.902;8.590;2024-01-30T13:27:43;13.30;;;8.87;;
7493;SDS011;3788;49.902;8.590;2024-01-30T13:30:10;10.00;;;8.10;;
7493;SDS011;3788;49.902;8.590;2024-01-30T13:32:37;10.90;;;9.13;;
7493;SDS011;3788;49.902;8.590;2024-01-30T13:35:06;10.93;;;8.83;;
7493;SDS011;3788;49.902;8.590;2024-01-30T13:37:33;9.17;;;8.27;;
7493;SDS011;3788;49.902;8.590;2024-01-30T13:40:00;10.03;;;7.80;;
7493;SDS011;3788;49.902;8.590;2024-01-30T13:42:27;9.20;;;7.63;;
7493;SDS011;3788;49.902;8.590;2024-01-30T13:44:55;9.00;;;7.77;;
7493;SDS011;3788;49.902;8.590;2024-01-30T13:47:21;10.37;;;7.87;;
7493;SDS011;3788;49.902;8.590;2024-01-30T13:49:48;9.70;;;7.43;;
7493;SDS011;3788;49.902;8.590;2024-01-30T13:52:15;10.70;;;7.67;;
7493;SDS011;3788;49.902;8.590;2024-01-30T13:54:42;12.87;;;8.40;;
7493;SDS011;3788;49.902;8.590;2024-01-30T13:57:08;9.23;;;7.80;;
7493;SDS011;3788;49.902;8.590;2024-01-30T13:59:38;9.13;;;7.03;;
7493;SDS011;3788;49.902;8.590;2024-01-30T14:02:06;8.77;;;7.20;;
7493;SDS011;3788;49.902;8.590;2024-01-30T14:04:35;10.77;;;7.70;;
7493;SDS011;3788;49.902;8.590;2024-01-30T14:07:02;11.13;;;7.17;;
7493;SDS011;3788;49.902;8.590;2024-01-30T14:09:29;10.20;;;6.73;;
7493;SDS011;3788;49.902;8.590;2024-01-30T14:11:57;9.43;;;7.40;;
7493;SDS011;3788;49.902;8.590;2024-01-30T14:14:24;8.83;;;7.20;;
7493;SDS011;3788;49.902;8.590;2024-01-30T14:16:51;9.87;;;7.73;;
7493;SDS011;3788;49.902;8.590;2024-01-30T14:19:18;9.47;;;6.93;;
7493;SDS011;3788;49.902;8.590;2024-01-30T14:21:45;8.83;;;6.80;;
7493;SDS011;3788;49.902;8.590;2024-01-30T14:24:12;8.40;;;7.00;;
7493;SDS011;3788;49.902;8.590;2024-01-30T14:26:39;10.37;;;7.70;;
7493;SDS011;3788;49.902;8.590;2024-01-30T14:29:05;10.67;;;6.67;;
7493;SDS011;3788;49.902;8.590;2024-01-30T14:31:32;10.30;;;7.63;;
7493;SDS011;3788;49.902;8.590;2024-01-30T14:33:59;9.57;;;7.20;;
7493;SDS011;3788;49.902;8.590;2024-01-30T14:36:27;8.27;;;7.17;;
7493;SDS011;3788;49.902;8.590;2024-01-30T14:38:54;10.57;;;7.87;;
7493;SDS011;3788;49.902;8.590;2024-01-30T14:41:21;10.07;;;6.77;;
7493;SDS011;3788;49.902;8.590;2024-01-30T14:43:47;9.67;;;7.50;;
7493;SDS011;3788;49.902;8.590;2024-01-30T14:46:14;8.23;;;7.43;;
7493;SDS011;3788;49.902;8.590;2024-01-30T14:48:41;11.60;;;7.60;;
7493;SDS011;3788;49.902;8.590;2024-01-30T14:51:08;9.50;;;7.53;;
7493;SDS011;3788;49.902;8.590;2024-01-30T14:53:36;9.30;;;7.30;;
7493;SDS011;3788;49.902;8.590;2024-01-30T14:56:03;8.33;;;7.17;;
7493;SDS011;3788;49.902;8.590;2024-01-30T14:58:30;9.40;;;7.57;;
7493;SDS011;3788;49.902;8.590;2024-01-30T15:00:57;9.67;;;8.20;;
7493;SDS011;3788;49.902;8.590;2024-01-30T15:03:24;7.67;;;6.87;;
7493;SDS011;3788;49.902;8.590;2024-01-30T15:05:51;11.40;;;9.07;;
7493;SDS011;3788;49.902;8.590;2024-01-30T15:08:19;9.97;;;7.83;;
7493;SDS011;3788;49.902;8.590;2024-01-30T15:10:47;10.33;;;8.07;;